Terminal Aerodrome Forecast
Issued by NWS

Home | Current Version | Previous Version | Text Only | Print | Product List | Glossary On
Versions: 1 2 3 4 5 6 7 8 9 10 11 12 13 14 15 16 17 18
247
FTUS43 KLSX 262321
TAFCPS
TAF
KCPS 262321Z 2700/2724 19007KT P6SM VCSH OVC040
     FM270600 VRB03KT P6SM OVC060
     FM271200 13004KT 5SM BR BKN025
     FM271600 15008KT P6SM SCT070=

USA.gov is the U.S. government's official web portal to all federal, state and local government web resources and services.